createdAt,value
2023-01-11T00:02:17.812Z,100479.34
2023-01-11T00:04:47.511Z,100468.81
2023-01-11T00:07:15.230Z,100466.81
2023-01-11T00:09:42.887Z,100481.66
2023-01-11T00:12:12.398Z,100476.16
2023-01-11T00:14:41.471Z,100469.97
2023-01-11T00:17:09.275Z,100460.16
2023-01-11T00:19:36.925Z,100467.91
2023-01-11T00:22:04.644Z,100468.75
2023-01-11T00:24:32.284Z,100471.88
2023-01-11T00:26:59.908Z,100461.38
2023-01-11T00:29:27.534Z,100459.44
2023-01-11T00:31:56.596Z,100467.22
2023-01-11T00:34:24.383Z,100461.75
2023-01-11T00:36:52.240Z,100457.31
2023-01-11T00:39:19.891Z,100441.53
2023-01-11T00:42:16.598Z,100454.56
2023-01-11T00:45:01.598Z,100444.03
2023-01-11T00:47:47.967Z,100442.94
2023-01-11T00:50:15.778Z,100443.66
2023-01-11T00:52:43.445Z,100430.50
2023-01-11T00:55:11.180Z,100437.47
2023-01-11T00:57:38.832Z,100442.72
2023-01-11T01:00:07.918Z,100440.09
2023-01-11T01:02:37.008Z,100431.44
2023-01-11T01:05:04.803Z,100437.22
2023-01-11T01:07:32.442Z,100430.03
2023-01-11T01:10:00.209Z,100435.28
2023-01-11T01:12:45.722Z,100424.75
2023-01-11T01:15:13.340Z,100427.66
2023-01-11T01:17:42.416Z,100432.31
2023-01-11T01:20:11.164Z,100422.63
2023-01-11T01:22:38.838Z,100421.78
2023-01-11T01:25:06.990Z,100418.19
2023-01-11T01:27:34.661Z,100424.03
2023-01-11T01:30:02.619Z,100415.44
2023-01-11T01:32:30.260Z,100409.94
2023-01-11T01:34:59.387Z,100409.69
2023-01-11T01:37:27.168Z,100409.69
2023-01-11T01:39:54.883Z,100399.28
2023-01-11T01:42:24.113Z,100409.44
2023-01-11T01:45:03.976Z,100414.50
2023-01-11T01:47:38.286Z,100410.91
2023-01-11T01:50:11.647Z,100410.91
2023-01-11T01:52:39.749Z,100416.16
2023-01-11T01:55:12.171Z,100410.78
2023-01-11T01:57:42.130Z,100403.47
2023-01-11T02:00:11.129Z,100405.16
2023-01-11T02:02:41.211Z,100407.78
2023-01-11T02:05:11.158Z,100387.69
2023-01-11T02:07:40.737Z,100401.31
2023-01-11T02:10:11.287Z,100407.31
2023-01-11T02:12:41.795Z,100390.53
2023-01-11T02:15:11.401Z,100389.47
2023-01-11T02:17:39.115Z,100380.59
2023-01-11T02:20:34.831Z,100376.88
2023-01-11T02:23:13.366Z,100388.13
2023-01-11T02:26:22.575Z,100381.19
2023-01-11T02:28:54.045Z,100377.72
2023-01-11T02:31:29.080Z,100375.94
2023-01-11T02:34:06.537Z,100379.28
2023-01-11T02:36:39.495Z,100369.81
2023-01-11T02:39:15.292Z,100360.97
2023-01-11T02:42:04.342Z,100367.91
2023-01-11T02:44:55.725Z,100363.47
2023-01-11T02:47:27.683Z,100368.75
2023-01-11T02:50:00.296Z,100365.97
2023-01-11T02:52:33.013Z,100366.09
2023-01-11T02:55:02.012Z,100373.63
2023-01-11T02:57:30.738Z,100368.34
2023-01-11T03:00:00.540Z,100368.81
2023-01-11T03:02:29.133Z,100357.47
2023-01-11T03:04:56.850Z,100356.25
2023-01-11T03:07:38.359Z,100355.03
2023-01-11T03:10:18.571Z,100357.31
2023-01-11T03:12:55.359Z,100353.72
2023-01-11T03:15:32.835Z,100363.88
2023-01-11T03:18:09.182Z,100360.16
2023-01-11T03:20:39.112Z,100350.47
2023-01-11T03:23:13.557Z,100370.09
2023-01-11T03:25:50.075Z,100347.31
2023-01-11T03:28:23.645Z,100363.63
2023-01-11T03:30:59.119Z,100363.38
2023-01-11T03:33:33.300Z,100355.91
2023-01-11T03:36:08.573Z,100352.06
2023-01-11T03:38:40.387Z,100368.38
2023-01-11T03:41:10.685Z,100375.03
2023-01-11T03:43:40.124Z,100358.25
2023-01-11T03:46:11.774Z,100352.97
2023-01-11T03:48:41.567Z,100353.31
2023-01-11T03:51:11.361Z,100359.44
2023-01-11T03:53:41.169Z,100347.91
2023-01-11T03:56:11.827Z,100350.31
2023-01-11T03:58:40.451Z,100360.59
2023-01-11T04:01:09.753Z,100355.31
2023-01-11T04:03:37.502Z,100366.56
2023-01-11T04:06:05.666Z,100367.31
2023-01-11T04:08:33.343Z,100367.53
2023-01-11T04:11:01.077Z,100373.97
2023-01-11T04:13:28.740Z,100370.63
2023-01-11T04:15:56.485Z,100369.41
2023-01-11T04:18:25.631Z,100375.28
2023-01-11T04:20:53.305Z,100367.50
2023-01-11T04:23:20.954Z,100371.53
2023-01-11T04:25:48.669Z,100371.53
2023-01-11T04:28:16.364Z,100357.38
2023-01-11T04:30:44.013Z,100364.31
2023-01-11T04:33:13.288Z,100359.78
2023-01-11T04:35:43.891Z,100359.91
2023-01-11T04:38:11.620Z,100362.41
2023-01-11T04:40:39.297Z,100365.75
2023-01-11T04:43:05.939Z,100378.94
2023-01-11T04:45:33.865Z,100371.03
2023-01-11T04:48:01.601Z,100379.91
2023-01-11T04:50:29.342Z,100383.94
2023-01-11T04:52:59.212Z,100384.69
2023-01-11T04:55:27.058Z,100387.31
2023-01-11T04:57:54.734Z,100394.97
2023-01-11T05:00:22.879Z,100392.19
2023-01-11T05:02:50.572Z,100393.03
2023-01-11T05:05:18.381Z,100387.50
2023-01-11T05:07:46.103Z,100388.34
2023-01-11T05:10:15.268Z,100381.97
2023-01-11T05:12:42.995Z,100382.66
2023-01-11T05:15:11.210Z,100382.28
2023-01-11T05:17:38.889Z,100394.38
2023-01-11T05:20:07.112Z,100384.78
2023-01-11T05:22:34.858Z,100394.84
2023-01-11T05:25:02.781Z,100399.97
2023-01-11T05:27:31.839Z,100380.19
2023-01-11T05:29:59.542Z,100396.25
2023-01-11T05:32:27.234Z,100397.66
2023-01-11T05:34:54.872Z,100396.69
2023-01-11T05:37:22.587Z,100399.31
2023-01-11T05:39:50.333Z,100391.41
2023-01-11T05:42:18.030Z,100396.69
2023-01-11T05:45:05.024Z,100397.66
2023-01-11T05:47:32.693Z,100393.34
2023-01-11T05:50:00.409Z,100397.66
2023-01-11T05:52:28.144Z,100406.53
2023-01-11T05:54:55.931Z,100412.53
2023-01-11T05:57:23.595Z,100418.78
2023-01-11T05:59:52.665Z,100416.59
2023-01-11T06:02:20.510Z,100419.09
2023-01-11T06:04:48.285Z,100424.94
2023-01-11T06:07:16.019Z,100423.28
2023-01-11T06:09:43.638Z,100420.38
2023-01-11T06:12:11.284Z,100418.59
2023-01-11T06:14:39.063Z,100428.03
2023-01-11T06:17:08.242Z,100432.22
2023-01-11T06:19:35.988Z,100420.69
2023-01-11T06:22:03.756Z,100415.53
2023-01-11T06:24:31.445Z,100415.53
2023-01-11T06:26:59.097Z,100431.13
2023-01-11T06:29:26.815Z,100437.25
2023-01-11T06:31:54.528Z,100438.09
2023-01-11T06:34:23.815Z,100433.63
2023-01-11T06:36:51.515Z,100427.53
2023-01-11T06:39:19.839Z,100429.19
2023-01-11T06:41:47.605Z,100436.97
2023-01-11T06:44:15.257Z,100421.97
2023-01-11T06:46:42.956Z,100435.91
2023-01-11T06:49:11.894Z,100441.19
2023-01-11T06:51:40.948Z,100438.41
2023-01-11T06:54:08.634Z,100448.13
2023-01-11T06:56:36.348Z,100455.66
2023-01-11T06:59:04.136Z,100453.84
2023-01-11T07:01:32.427Z,100460.09
2023-01-11T07:04:00.324Z,100460.94
2023-01-11T07:06:31.976Z,100471.63
2023-01-11T07:09:01.029Z,100475.69
2023-01-11T07:11:28.750Z,100472.09
2023-01-11T07:13:56.524Z,100479.28
2023-01-11T07:16:24.291Z,100482.66
2023-01-11T07:18:52.102Z,100484.56
2023-01-11T07:21:19.788Z,100485.44
2023-01-11T07:23:48.836Z,100479.19
2023-01-11T07:26:18.067Z,100479.28
2023-01-11T07:28:45.771Z,100497.78
2023-01-11T07:31:13.468Z,100507.41
2023-01-11T07:33:41.187Z,100510.28
2023-01-11T07:36:09.588Z,100502.50
2023-01-11T07:38:37.224Z,100495.13
2023-01-11T07:41:25.351Z,100501.53
2023-01-11T07:43:53.398Z,100512.94
2023-01-11T07:46:21.126Z,100518.22
2023-01-11T07:48:48.984Z,100528.66
2023-01-11T07:51:17.907Z,100538.38
2023-01-11T07:53:45.592Z,100548.25
2023-01-11T07:56:13.311Z,100545.13
2023-01-11T07:58:40.972Z,100557.97
2023-01-11T08:01:10.115Z,100542.13
2023-01-11T08:03:38.024Z,100543.22
2023-01-11T08:06:06.272Z,100545.75
2023-01-11T08:08:33.899Z,100546.56
2023-01-11T08:11:15.465Z,100543.94
2023-01-11T08:14:00.725Z,100542.97
2023-01-11T08:16:29.827Z,100564.09
2023-01-11T08:18:57.567Z,100565.91
2023-01-11T08:21:25.288Z,100568.53
2023-01-11T08:23:54.389Z,100576.59
2023-01-11T08:26:23.339Z,100581.88
2023-01-11T08:28:51.114Z,100575.03
2023-01-11T08:31:18.845Z,100578.78
2023-01-11T08:33:49.525Z,100590.31
2023-01-11T08:36:17.215Z,100592.38
2023-01-11T08:38:45.224Z,100605.47
2023-01-11T08:41:14.533Z,100613.13
2023-01-11T08:43:42.931Z,100606.16
2023-01-11T08:46:11.263Z,100607.97
2023-01-11T08:48:39.086Z,100611.44
2023-01-11T08:51:08.261Z,100615.06
2023-01-11T08:53:35.969Z,100621.31
2023-01-11T08:56:03.695Z,100616.84
2023-01-11T08:58:31.362Z,100628.50
2023-01-11T09:01:00.050Z,100635.59
2023-01-11T09:03:28.611Z,100636.81
2023-01-11T09:05:56.831Z,100656.13
2023-01-11T09:08:26.711Z,100650.38
2023-01-11T09:10:56.298Z,100659.53
2023-01-11T09:13:24.276Z,100665.88
2023-01-11T09:15:52.253Z,100666.97
2023-01-11T09:18:19.985Z,100683.09
2023-01-11T09:20:47.642Z,100683.09
2023-01-11T09:23:15.281Z,100689.34
2023-01-11T09:25:44.292Z,100693.16
2023-01-11T09:28:11.933Z,100699.63
2023-01-11T09:30:39.608Z,100706.84
2023-01-11T09:33:08.138Z,100705.44
2023-01-11T09:35:38.408Z,100716.00
2023-01-11T09:38:06.108Z,100709.97
2023-01-11T09:40:42.999Z,100716.00
2023-01-11T09:43:14.904Z,100719.34
2023-01-11T09:45:46.719Z,100717.41
2023-01-11T09:48:26.684Z,100713.34
2023-01-11T09:50:54.445Z,100718.25
2023-01-11T09:53:28.090Z,100721.97
2023-01-11T09:55:58.064Z,100722.69
2023-01-11T09:58:40.148Z,100727.38
2023-01-11T10:01:14.671Z,100730.59
2023-01-11T10:03:59.767Z,100724.88
2023-01-11T10:06:29.002Z,100725.09
2023-01-11T10:18:33.760Z,100721.97
2023-01-11T10:18:34.249Z,100723.69
2023-01-11T10:20:55.143Z,100722.09
2023-01-11T10:23:28.049Z,100731.69
2023-01-11T10:26:00.208Z,100738.91
2023-01-11T10:28:35.083Z,100744.56
2023-01-11T10:31:28.753Z,100758.69
2023-01-11T10:34:16.068Z,100749.09
2023-01-11T10:37:04.881Z,100751.97
2023-01-11T10:39:55.569Z,100761.81
2023-01-11T10:42:25.141Z,100757.38
2023-01-11T10:45:00.019Z,100753.06
2023-01-11T10:47:32.320Z,100762.66
2023-01-11T10:50:03.519Z,100747.88
2023-01-11T10:52:36.968Z,100752.44
2023-01-11T10:55:13.869Z,100755.94
2023-01-11T10:57:59.287Z,100762.03
2023-01-11T11:00:36.071Z,100760.25
2023-01-11T11:03:23.166Z,100759.91
2023-01-11T11:05:54.925Z,100765.19
2023-01-11T11:08:28.120Z,100768.66
2023-01-11T11:11:00.798Z,100761.00
2023-01-11T11:13:40.578Z,100774.19
2023-01-11T11:16:16.210Z,100766.25
2023-01-11T11:18:45.422Z,100764.94
2023-01-11T11:21:20.671Z,100764.81
2023-01-11T11:23:52.495Z,100756.88
2023-01-11T11:28:25.724Z,100766.84
2023-01-11T11:30:54.720Z,100772.03
2023-01-11T11:33:24.115Z,100767.81
2023-01-11T11:35:56.751Z,100778.16
2023-01-11T11:38:26.198Z,100773.44
2023-01-11T11:41:06.375Z,100785.22
2023-01-11T11:43:36.754Z,100779.59
2023-01-11T11:46:06.481Z,100774.16
2023-01-11T11:48:35.409Z,100776.94
2023-01-11T11:51:04.850Z,100781.97
2023-01-11T11:53:43.042Z,100781.47
2023-01-11T11:56:19.269Z,100788.69
2023-01-11T11:58:48.487Z,100782.69
2023-01-11T12:01:27.363Z,100788.47
2023-01-11T12:03:57.159Z,100781.75
2023-01-11T12:06:26.603Z,100781.97
2023-01-11T12:08:54.739Z,100786.88
2023-01-11T12:11:26.236Z,100788.44
2023-01-11T12:14:03.650Z,100799.50
2023-01-11T12:16:32.888Z,100794.34
2023-01-11T12:19:00.608Z,100791.56
2023-01-11T12:21:30.176Z,100797.56
2023-01-11T12:24:16.739Z,100786.66
2023-01-11T12:26:52.823Z,100792.75
2023-01-11T12:29:46.542Z,100798.44
2023-01-11T12:32:30.495Z,100793.25
2023-01-11T12:35:20.156Z,100791.44
2023-01-11T12:38:05.643Z,100791.94
2023-01-11T12:40:37.479Z,100796.25
2023-01-11T12:43:26.860Z,100798.28
2023-01-11T12:46:05.630Z,100795.78
2023-01-11T12:48:52.823Z,100792.41
2023-01-11T12:51:38.645Z,100795.19
2023-01-11T12:54:18.323Z,100785.09
2023-01-11T12:56:55.113Z,100790.38
2023-01-11T12:59:34.762Z,100798.06
2023-01-11T13:02:18.343Z,100796.84
2023-01-11T13:04:53.278Z,100800.94
2023-01-11T13:07:32.335Z,100806.22
2023-01-11T13:10:09.625Z,100800.94
2023-01-11T13:12:42.399Z,100812.34
2023-01-11T13:15:21.191Z,100797.59
2023-01-11T13:17:55.019Z,100796.63
2023-01-11T13:20:29.988Z,100807.78
2023-01-11T13:23:02.319Z,100797.56
2023-01-11T13:25:31.664Z,100802.13
2023-01-11T13:28:01.623Z,100805.75
2023-01-11T13:30:29.838Z,100805.84
2023-01-11T13:33:03.491Z,100802.13
2023-01-11T13:35:38.216Z,100809.22
2023-01-11T13:38:11.981Z,100819.41
2023-01-11T13:40:43.610Z,100818.19
2023-01-11T13:43:15.978Z,100818.19
2023-01-11T13:45:47.424Z,100815.56
2023-01-11T13:48:19.814Z,100813.19
2023-01-11T13:50:52.118Z,100817.00
2023-01-11T13:53:26.917Z,100820.16
2023-01-11T13:55:58.552Z,100823.13
2023-01-11T13:58:29.120Z,100836.59
2023-01-11T14:01:01.358Z,100835.75
2023-01-11T14:03:33.476Z,100830.34
2023-01-11T14:06:13.215Z,100837.03
2023-01-11T14:09:01.702Z,100829.75
2023-01-11T14:11:36.573Z,100827.69
2023-01-11T14:14:25.293Z,100822.91
2023-01-11T14:17:07.007Z,100836.81
2023-01-11T14:19:41.562Z,100837.06
2023-01-11T14:22:15.679Z,100836.44
2023-01-11T14:24:51.651Z,100843.06
2023-01-11T14:27:36.842Z,100860.22
2023-01-11T14:30:13.853Z,100855.28
2023-01-11T14:33:03.501Z,100856.50
2023-01-11T14:38:16.421Z,100846.28
2023-01-11T14:40:56.318Z,100838.34
2023-01-11T14:43:58.683Z,100841.97
2023-01-11T14:46:58.858Z,100839.91
2023-01-11T14:49:41.921Z,100835.59
2023-01-11T14:52:11.677Z,100837.38
2023-01-11T14:54:44.918Z,100840.25
2023-01-11T14:57:38.107Z,100840.75
2023-01-11T15:00:07.566Z,100850.78
2023-01-11T15:02:35.292Z,100837.09
2023-01-11T15:05:28.452Z,100831.94
2023-01-11T15:08:19.632Z,100821.72
2023-01-11T15:11:00.621Z,100828.91
2023-01-11T15:13:32.487Z,100826.53
2023-01-11T15:16:26.561Z,100829.50
2023-01-11T15:18:54.924Z,100836.56
2023-01-11T15:21:24.407Z,100841.47
2023-01-11T15:23:54.604Z,100842.78
2023-01-11T15:26:24.720Z,100848.13
2023-01-11T15:28:53.405Z,100851.63
2023-01-11T15:31:34.349Z,100856.69
2023-01-11T15:34:05.400Z,100857.28
2023-01-11T15:36:52.496Z,100856.44
2023-01-11T15:39:24.328Z,100851.41
2023-01-11T15:42:05.370Z,100868.19
2023-01-11T15:44:45.884Z,100868.28
2023-01-11T15:47:36.131Z,100868.50
2023-01-11T15:50:48.094Z,100877.78
2023-01-11T15:53:38.405Z,100874.41
2023-01-11T15:56:35.027Z,100875.03
2023-01-11T15:59:19.357Z,100879.47
2023-01-11T16:02:11.654Z,100880.63
2023-01-11T16:04:42.034Z,100869.59
2023-01-11T16:07:16.403Z,100869.81
2023-01-11T16:09:55.549Z,100866.72
2023-01-11T16:12:35.743Z,100872.38
2023-01-11T16:15:28.707Z,100868.25
2023-01-11T16:17:59.609Z,100859.88
2023-01-11T16:20:28.013Z,100878.72
2023-01-11T16:22:58.089Z,100869.44
2023-01-11T16:25:30.218Z,100870.59
2023-01-11T16:28:00.139Z,100870.13
2023-01-11T16:30:29.663Z,100879.19
2023-01-11T16:33:15.214Z,100873.91
2023-01-11T16:35:43.127Z,100886.38
2023-01-11T16:38:16.298Z,100893.31
2023-01-11T16:40:47.405Z,100886.97
2023-01-11T16:43:18.628Z,100876.44
2023-01-11T16:45:49.498Z,100884.75
2023-01-11T16:48:18.592Z,100875.69
2023-01-11T16:50:48.693Z,100883.59
2023-01-11T16:53:17.540Z,100881.66
2023-01-11T16:55:48.173Z,100876.63
2023-01-11T16:58:25.657Z,100882.22
2023-01-11T17:01:00.372Z,100886.78
2023-01-11T17:03:30.083Z,100883.06
2023-01-11T17:06:03.483Z,100888.09
2023-01-11T17:08:34.782Z,100891.56
2023-01-11T17:11:06.256Z,100893.50
2023-01-11T17:14:07.862Z,100888.22
2023-01-11T17:16:39.656Z,100887.38
2023-01-11T17:19:12.222Z,100875.88
2023-01-11T17:21:39.906Z,100884.63
2023-01-11T17:24:07.858Z,100886.41
2023-01-11T17:26:39.410Z,100870.72
2023-01-11T17:29:07.231Z,100882.34
2023-01-11T17:31:38.428Z,100883.28
2023-01-11T17:34:08.536Z,100886.13
2023-01-11T17:36:36.606Z,100872.97
2023-01-11T17:39:04.816Z,100872.97
2023-01-11T17:41:50.627Z,100870.31
2023-01-11T17:44:37.541Z,100876.56
2023-01-11T17:47:08.778Z,100875.59
2023-01-11T17:49:37.905Z,100882.66
2023-01-11T17:52:12.683Z,100886.97
2023-01-11T17:54:40.371Z,100880.88
2023-01-11T17:57:08.038Z,100878.03
2023-01-11T17:59:35.834Z,100871.91
2023-01-11T18:02:09.774Z,100875.59
2023-01-11T18:04:37.990Z,100872.00
2023-01-11T18:07:08.487Z,100861.47
2023-01-11T18:09:38.695Z,100845.03
2023-01-11T18:12:08.849Z,100856.94
2023-01-11T18:14:40.429Z,100855.34
2023-01-11T18:17:31.803Z,100850.19
2023-01-11T18:20:00.264Z,100852.22
2023-01-11T18:22:32.172Z,100849.69
2023-01-11T18:25:00.634Z,100843.69
2023-01-11T18:27:32.645Z,100835.06
2023-01-11T18:30:02.815Z,100845.72
2023-01-11T18:32:35.699Z,100850.88
2023-01-11T18:35:03.587Z,100847.41
2023-01-11T18:37:31.250Z,100842.97
2023-01-11T18:39:59.252Z,100846.56
2023-01-11T18:42:30.071Z,100831.78
2023-01-11T18:44:57.801Z,100829.06
2023-01-11T18:47:26.935Z,100817.69
2023-01-11T18:49:58.937Z,100802.94
2023-01-11T18:52:29.419Z,100802.72
2023-01-11T18:54:57.719Z,100799.72
2023-01-11T18:57:25.855Z,100805.84
2023-01-11T18:59:54.048Z,100794.69
2023-01-11T19:02:24.702Z,100803.22
2023-01-11T19:04:54.089Z,100800.81
2023-01-11T19:07:23.937Z,100797.09
2023-01-11T19:09:51.908Z,100794.59
2023-01-11T19:12:19.740Z,100773.38
2023-01-11T19:14:47.475Z,100784.75
2023-01-11T19:17:15.437Z,100791.72
2023-01-11T19:19:43.378Z,100791.72
2023-01-11T19:22:11.929Z,100771.59
2023-01-11T19:24:41.463Z,100778.66
2023-01-11T19:27:09.396Z,100773.63
2023-01-11T19:29:37.204Z,100759.44
2023-01-11T19:32:05.185Z,100768.19
2023-01-11T19:34:34.755Z,100777.25
2023-01-11T19:37:02.718Z,100772.44
2023-01-11T19:39:30.413Z,100769.78
2023-01-11T19:42:01.482Z,100778.88
2023-01-11T19:44:32.159Z,100770.22
2023-01-11T19:47:11.009Z,100766.16
2023-01-11T19:49:40.451Z,100772.50
2023-01-11T19:52:12.294Z,100763.53
2023-01-11T19:54:41.896Z,100756.91
2023-01-11T19:57:12.210Z,100742.78
2023-01-11T19:59:39.932Z,100746.03
2023-01-11T20:02:08.133Z,100737.19
2023-01-11T20:04:35.907Z,100737.91
2023-01-11T20:07:03.705Z,100741.25
2023-01-11T20:09:31.401Z,100732.44
2023-01-11T20:11:59.168Z,100730.72
2023-01-11T20:14:28.225Z,100727.38
2023-01-11T20:16:55.996Z,100724.03
2023-01-11T20:19:23.746Z,100705.59
2023-01-11T20:21:51.387Z,100714.44
2023-01-11T20:24:19.113Z,100721.00
2023-01-11T20:26:47.199Z,100698.00
2023-01-11T20:29:14.986Z,100691.91
2023-01-11T20:31:44.078Z,100697.19
2023-01-11T20:34:13.165Z,100706.75
2023-01-11T20:36:42.006Z,100706.88
2023-01-11T20:39:10.405Z,100703.41
2023-01-11T20:41:51.016Z,100698.13
2023-01-11T20:44:20.519Z,100721.09
2023-01-11T20:46:49.730Z,100717.13
2023-01-11T20:49:18.045Z,100707.66
2023-01-11T20:51:46.146Z,100724.63
2023-01-11T20:54:14.213Z,100706.41
2023-01-11T20:56:42.137Z,100708.53
2023-01-11T21:01:38.477Z,100701.91
2023-01-11T21:04:08.951Z,100719.72
2023-01-11T21:06:38.694Z,100708.38
2023-01-11T21:09:07.131Z,100714.69
2023-01-11T21:11:35.067Z,100716.50
2023-01-11T21:14:05.132Z,100725.94
2023-01-11T21:16:33.248Z,100719.97
2023-01-11T21:19:02.271Z,100720.78
2023-01-11T21:21:33.354Z,100711.53
2023-01-11T21:24:02.738Z,100716.06
2023-01-11T21:26:31.266Z,100708.19
2023-01-11T21:29:00.348Z,100707.34
2023-01-11T21:31:28.886Z,100697.03
2023-01-11T21:33:57.141Z,100703.34
2023-01-11T21:36:28.499Z,100702.50
2023-01-11T21:38:59.207Z,100706.69
2023-01-11T21:41:42.233Z,100697.84
2023-01-11T21:44:10.653Z,100679.25
2023-01-11T21:46:38.415Z,100687.03
2023-01-11T21:49:06.675Z,100689.66
2023-01-11T21:51:34.981Z,100692.88
2023-01-11T21:54:06.520Z,100685.00
2023-01-11T21:56:34.394Z,100676.38
2023-01-11T21:59:02.251Z,100672.91
2023-01-11T22:01:30.210Z,100668.47
2023-01-11T22:03:58.268Z,100671.13
2023-01-11T22:06:26.036Z,100662.50
2023-01-11T22:08:53.900Z,100670.03
2023-01-11T22:11:23.043Z,100648.06
2023-01-11T22:13:50.744Z,100654.16
2023-01-11T22:16:19.009Z,100645.31
2023-01-11T22:18:46.935Z,100648.16
2023-01-11T22:21:15.840Z,100642.06
2023-01-11T22:23:43.588Z,100651.75
2023-01-11T22:26:12.780Z,100645.75
2023-01-11T22:28:56.057Z,100644.91
2023-01-11T22:31:24.543Z,100641.44
2023-01-11T22:33:52.811Z,100639.78
2023-01-11T22:36:20.950Z,100653.88
2023-01-11T22:38:48.592Z,100656.41
2023-01-11T22:41:16.932Z,100658.06
2023-01-11T22:43:46.538Z,100667.66
2023-01-11T22:46:16.043Z,100646.47
2023-01-11T22:48:44.671Z,100660.28
2023-01-11T22:51:12.817Z,100658.47
2023-01-11T22:53:42.293Z,100660.88
2023-01-11T22:56:11.089Z,100665.06
2023-01-11T22:58:39.032Z,100658.63
2023-01-11T23:01:15.923Z,100661.78
2023-01-11T23:03:45.147Z,100665.13
2023-01-11T23:06:13.541Z,100662.16
2023-01-11T23:08:43.204Z,100652.59
2023-01-11T23:11:11.714Z,100661.94
2023-01-11T23:13:54.935Z,100649.75
2023-01-11T23:16:24.345Z,100655.22
2023-01-11T23:18:52.061Z,100651.63
2023-01-11T23:21:20.350Z,100649.00
2023-01-11T23:23:48.248Z,100650.91
2023-01-11T23:26:18.005Z,100649.09
2023-01-11T23:28:46.246Z,100655.22
2023-01-11T23:31:17.690Z,100637.88
2023-01-11T23:33:47.649Z,100654.25
2023-01-11T23:36:16.028Z,100635.00
2023-01-11T23:38:43.802Z,100645.53
2023-01-11T23:41:31.540Z,100638.47
2023-01-11T23:43:59.431Z,100650.78
2023-01-11T23:46:44.850Z,100654.78
2023-01-11T23:49:14.621Z,100655.72
2023-01-11T23:51:43.056Z,100654.66
2023-01-11T23:54:11.254Z,100642.31
2023-01-11T23:56:39.454Z,100656.44
2023-01-11T23:59:08.083Z,100658.13
